Time;durP1;ratioP1;P1;durP2;ratioP2;P2;SDS_P1;SDS_P2;PMS_P1;PMS_P2;Temp;Humidity;BMP_temperature;BMP_pressure;BME280_temperature;BME280_humidity;BME280_pressure;Samples;Min_cycle;Max_cycle;Signal;HPM_P1;HPM_P2
2022/08/30 00:01:34;;;;;;;4.32;2.10;;;;;;;;;;4988567;28;20539;-62
2022/08/30 00:04:00;;;;;;;5.50;2.53;;;;;;;;;;4988531;28;20347;-61
2022/08/30 00:06:27;;;;;;;4.57;2.33;;;;;;;;;;4989513;28;20560;-61
2022/08/30 00:08:53;;;;;;;5.50;2.45;;;;;;;;;;4988789;28;20100;-62
2022/08/30 00:11:22;;;;;;;3.33;2.13;;;;;;;;;;4988251;28;20501;-62
2022/08/30 00:13:50;;;;;;;5.18;2.40;;;;;;;;;;4989034;28;20497;-62
2022/08/30 00:16:17;;;;;;;3.77;2.57;;;;;;;;;;4988964;28;20363;-62
2022/08/30 00:18:43;;;;;;;5.20;2.00;;;;;;;;;;4989195;28;20427;-62
2022/08/30 00:21:09;;;;;;;7.45;2.13;;;;;;;;;;4988448;28;20470;-62
2022/08/30 00:23:34;;;;;;;5.72;2.22;;;;;;;;;;4988835;28;20497;-61
2022/08/30 00:26:00;;;;;;;5.70;2.35;;;;;;;;;;4987913;28;20448;-62
2022/08/30 00:28:26;;;;;;;5.80;2.60;;;;;;;;;;4987973;28;20416;-61
2022/08/30 00:30:51;;;;;;;4.15;2.28;;;;;;;;;;4988846;28;20024;-62
2022/08/30 00:33:16;;;;;;;4.30;2.08;;;;;;;;;;4988070;28;20048;-63
2022/08/30 00:35:43;;;;;;;4.00;1.92;;;;;;;;;;4989921;28;20521;-62
2022/08/30 00:38:09;;;;;;;6.80;2.25;;;;;;;;;;4987682;28;20497;-64
2022/08/30 00:40:35;;;;;;;5.50;2.50;;;;;;;;;;4987822;28;20029;-64
2022/08/30 00:43:03;;;;;;;4.70;2.42;;;;;;;;;;4987856;28;20507;-64
2022/08/30 00:45:32;;;;;;;4.70;2.67;;;;;;;;;;4987621;28;20459;-63
2022/08/30 00:47:58;;;;;;;6.90;2.28;;;;;;;;;;4987937;28;20450;-63
2022/08/30 00:50:28;;;;;;;6.63;2.25;;;;;;;;;;4987609;28;20028;-63
2022/08/30 00:52:58;;;;;;;4.57;2.22;;;;;;;;;;4987531;28;20466;-63
2022/08/30 00:55:24;;;;;;;3.40;2.08;;;;;;;;;;4968000;28;20544;-63
2022/08/30 00:57:52;;;;;;;3.47;2.03;;;;;;;;;;4969702;28;20448;-64
2022/08/30 01:00:17;;;;;;;2.83;1.92;;;;;;;;;;4987784;28;20047;-63
2022/08/30 01:02:43;;;;;;;6.72;2.65;;;;;;;;;;4979120;28;20448;-63
2022/08/30 01:05:09;;;;;;;4.28;2.13;;;;;;;;;;4968215;28;20971;-63
2022/08/30 01:07:36;;;;;;;7.88;2.75;;;;;;;;;;4967883;28;20030;-63
2022/08/30 01:10:03;;;;;;;9.45;2.58;;;;;;;;;;4967709;28;20048;-63
2022/08/30 01:12:28;;;;;;;4.28;2.25;;;;;;;;;;4950033;28;20396;-65
2022/08/30 01:14:55;;;;;;;4.45;2.30;;;;;;;;;;4967989;28;20331;-63
2022/08/30 01:17:21;;;;;;;4.18;2.55;;;;;;;;;;4968001;28;20408;-64
2022/08/30 01:19:50;;;;;;;5.60;3.03;;;;;;;;;;4950489;28;20022;-63
2022/08/30 01:22:27;;;;;;;8.15;2.55;;;;;;;;;;4608644;28;10002524;-63
2022/08/30 01:24:55;;;;;;;5.53;2.60;;;;;;;;;;4933338;28;20348;-64
2022/08/30 01:27:21;;;;;;;7.75;2.47;;;;;;;;;;4966310;28;20395;-66
2022/08/30 01:29:47;;;;;;;7.00;2.58;;;;;;;;;;4967724;28;20348;-64
2022/08/30 01:32:22;;;;;;;5.22;2.22;;;;;;;;;;4950254;28;20069;-63
2022/08/30 01:34:48;;;;;;;8.25;2.30;;;;;;;;;;4969033;28;20375;-64
2022/08/30 01:37:19;;;;;;;8.93;2.50;;;;;;;;;;4968186;28;20052;-63
2022/08/30 01:39:45;;;;;;;7.25;3.08;;;;;;;;;;4967600;28;20476;-64
2022/08/30 01:42:11;;;;;;;7.20;2.75;;;;;;;;;;4967771;28;20321;-63
2022/08/30 01:44:37;;;;;;;4.97;2.55;;;;;;;;;;4969209;28;20444;-63
2022/08/30 01:47:03;;;;;;;6.28;3.03;;;;;;;;;;4968004;28;20498;-63
2022/08/30 01:49:29;;;;;;;5.70;3.15;;;;;;;;;;4967344;28;20531;-63
2022/08/30 01:51:54;;;;;;;5.20;2.67;;;;;;;;;;4967442;28;20451;-63
2022/08/30 01:54:19;;;;;;;6.47;2.80;;;;;;;;;;4975854;28;20460;-63
2022/08/30 01:56:45;;;;;;;5.85;2.55;;;;;;;;;;4986681;28;20487;-63
2022/08/30 01:59:10;;;;;;;5.97;2.83;;;;;;;;;;4986906;28;20395;-63
2022/08/30 02:01:37;;;;;;;3.92;2.33;;;;;;;;;;4987388;28;20444;-64
2022/08/30 02:04:03;;;;;;;8.65;2.95;;;;;;;;;;4986726;28;20394;-63
2022/08/30 02:06:28;;;;;;;6.22;2.67;;;;;;;;;;4986894;28;20087;-64
2022/08/30 02:08:54;;;;;;;8.13;2.53;;;;;;;;;;4987224;28;20044;-64
2022/08/30 02:11:19;;;;;;;5.93;2.45;;;;;;;;;;4987160;28;20411;-63
2022/08/30 02:13:45;;;;;;;9.45;3.38;;;;;;;;;;4987765;28;20375;-64
2022/08/30 02:16:14;;;;;;;4.55;2.30;;;;;;;;;;4990991;28;20080;-64
2022/08/30 02:18:40;;;;;;;3.92;2.40;;;;;;;;;;4991331;28;20360;-67
2022/08/30 02:21:06;;;;;;;5.35;2.75;;;;;;;;;;4990333;28;20099;-63
2022/08/30 02:23:31;;;;;;;7.10;2.08;;;;;;;;;;4990179;28;20436;-63
2022/08/30 02:25:57;;;;;;;9.13;2.50;;;;;;;;;;4990567;28;20398;-64
2022/08/30 02:28:24;;;;;;;8.63;2.63;;;;;;;;;;4990448;28;20448;-63
2022/08/30 02:30:50;;;;;;;6.22;2.35;;;;;;;;;;4990107;28;20079;-64
2022/08/30 02:33:15;;;;;;;6.90;2.85;;;;;;;;;;4990333;28;20503;-63
2022/08/30 02:35:41;;;;;;;5.85;2.47;;;;;;;;;;4989886;28;20454;-64
2022/08/30 02:38:06;;;;;;;6.68;2.78;;;;;;;;;;4990145;28;20457;-63
2022/08/30 02:40:33;;;;;;;6.65;2.42;;;;;;;;;;4991239;28;20396;-64
2022/08/30 02:42:58;;;;;;;7.00;2.33;;;;;;;;;;4989812;28;20339;-64
2022/08/30 02:45:24;;;;;;;4.90;2.25;;;;;;;;;;4990036;28;20352;-64
2022/08/30 02:47:49;;;;;;;5.72;2.40;;;;;;;;;;4990267;28;20343;-63
2022/08/30 02:50:15;;;;;;;10.32;2.65;;;;;;;;;;4989708;28;20570;-63
2022/08/30 02:52:41;;;;;;;7.70;2.45;;;;;;;;;;4990584;28;20364;-64
2022/08/30 02:55:07;;;;;;;4.65;2.15;;;;;;;;;;4989827;28;20456;-63
2022/08/30 02:57:32;;;;;;;5.60;2.58;;;;;;;;;;4989700;28;20486;-64
2022/08/30 02:59:58;;;;;;;4.57;1.92;;;;;;;;;;4989867;28;20448;-64
2022/08/30 03:02:24;;;;;;;8.13;2.03;;;;;;;;;;4991401;28;20356;-64
2022/08/30 03:04:50;;;;;;;5.47;2.17;;;;;;;;;;4991795;28;20447;-63
2022/08/30 03:07:15;;;;;;;4.70;2.03;;;;;;;;;;4991111;28;20341;-64
2022/08/30 03:09:40;;;;;;;5.88;2.05;;;;;;;;;;4989547;28;20523;-64
2022/08/30 03:12:07;;;;;;;5.68;2.40;;;;;;;;;;4990321;28;20348;-64
2022/08/30 03:14:35;;;;;;;6.20;2.13;;;;;;;;;;4989749;28;20424;-64
2022/08/30 03:17:01;;;;;;;4.70;2.10;;;;;;;;;;4989184;28;20451;-64
2022/08/30 03:19:27;;;;;;;6.78;2.42;;;;;;;;;;4989695;28;20502;-64
2022/08/30 03:21:53;;;;;;;4.47;2.30;;;;;;;;;;4990786;28;20336;-63
2022/08/30 03:24:18;;;;;;;5.68;2.45;;;;;;;;;;4988727;28;20390;-63
2022/08/30 03:26:44;;;;;;;4.65;2.17;;;;;;;;;;4989576;28;20029;-63
2022/08/30 03:29:09;;;;;;;5.75;2.08;;;;;;;;;;4989463;28;20432;-63
2022/08/30 03:31:35;;;;;;;9.57;2.78;;;;;;;;;;4989759;28;20463;-63
2022/08/30 03:34:01;;;;;;;4.88;2.15;;;;;;;;;;4988868;28;20090;-63
2022/08/30 03:36:27;;;;;;;6.32;2.42;;;;;;;;;;4989142;28;20455;-63
2022/08/30 03:38:52;;;;;;;7.55;2.50;;;;;;;;;;4988855;28;20105;-64
2022/08/30 03:41:17;;;;;;;7.82;2.58;;;;;;;;;;4988967;28;20398;-63
2022/08/30 03:43:46;;;;;;;8.63;2.88;;;;;;;;;;4989020;28;20317;-63
2022/08/30 03:46:12;;;;;;;8.70;2.72;;;;;;;;;;4989784;28;20436;-64
2022/08/30 03:48:38;;;;;;;8.40;2.28;;;;;;;;;;4970773;28;20505;-63
2022/08/30 03:51:03;;;;;;;7.25;2.45;;;;;;;;;;4989187;28;20440;-64
2022/08/30 03:53:28;;;;;;;6.10;2.67;;;;;;;;;;4988288;28;20348;-63
2022/08/30 03:55:54;;;;;;;5.90;2.70;;;;;;;;;;4988481;28;20515;-63
2022/08/30 03:58:19;;;;;;;6.50;2.70;;;;;;;;;;4989276;28;20394;-63
2022/08/30 04:00:45;;;;;;;11.77;3.17;;;;;;;;;;4988338;28;20051;-63
2022/08/30 04:03:10;;;;;;;7.95;2.50;;;;;;;;;;4989319;28;20412;-63
2022/08/30 04:05:35;;;;;;;6.93;3.10;;;;;;;;;;4988780;28;20430;-63
2022/08/30 04:08:01;;;;;;;11.40;3.10;;;;;;;;;;4988259;28;20088;-64
2022/08/30 04:10:26;;;;;;;9.90;2.88;;;;;;;;;;4988929;28;20565;-64
2022/08/30 04:12:52;;;;;;;13.32;3.10;;;;;;;;;;4988201;28;20044;-63
2022/08/30 04:15:18;;;;;;;10.18;2.75;;;;;;;;;;4990432;28;20508;-63
2022/08/30 04:17:43;;;;;;;8.45;3.13;;;;;;;;;;4988118;28;20052;-64
2022/08/30 04:20:09;;;;;;;8.68;2.60;;;;;;;;;;4988088;28;20132;-63
2022/08/30 04:22:35;;;;;;;12.18;5.22;;;;;;;;;;4988014;28;20455;-63
2022/08/30 04:25:02;;;;;;;12.32;5.40;;;;;;;;;;4988066;28;20329;-63
2022/08/30 04:27:27;;;;;;;12.02;5.20;;;;;;;;;;4987999;28;20029;-63
2022/08/30 04:29:54;;;;;;;11.40;5.07;;;;;;;;;;4988706;28;20439;-63
2022/08/30 04:32:20;;;;;;;12.20;4.63;;;;;;;;;;4988080;28;20382;-63
2022/08/30 04:34:45;;;;;;;11.48;3.95;;;;;;;;;;4987962;28;20383;-64
2022/08/30 04:37:10;;;;;;;7.85;3.58;;;;;;;;;;4987447;28;20490;-63
2022/08/30 04:39:36;;;;;;;8.80;3.42;;;;;;;;;;4988798;28;20367;-63
2022/08/30 04:42:02;;;;;;;7.22;3.55;;;;;;;;;;4987898;28;20404;-63
2022/08/30 04:44:27;;;;;;;10.68;3.13;;;;;;;;;;4988057;28;20047;-63
2022/08/30 04:46:53;;;;;;;13.10;4.57;;;;;;;;;;4987625;28;20429;-63
2022/08/30 04:49:19;;;;;;;12.02;3.55;;;;;;;;;;4987809;28;20426;-63
2022/08/30 04:51:45;;;;;;;23.95;3.80;;;;;;;;;;4988702;28;20424;-64
2022/08/30 04:54:11;;;;;;;15.25;4.90;;;;;;;;;;4972064;28;20472;-63
2022/08/30 04:56:36;;;;;;;19.65;4.90;;;;;;;;;;4987771;28;20352;-64
2022/08/30 04:59:04;;;;;;;20.48;5.47;;;;;;;;;;4987658;28;20367;-64
2022/08/30 05:01:30;;;;;;;8.45;3.88;;;;;;;;;;4987846;28;20329;-63
2022/08/30 05:03:57;;;;;;;9.98;3.72;;;;;;;;;;4988587;28;20432;-63
2022/08/30 05:06:24;;;;;;;13.13;3.97;;;;;;;;;;4988942;28;20455;-63
2022/08/30 05:08:49;;;;;;;8.88;3.30;;;;;;;;;;4987661;28;20340;-64
2022/08/30 05:11:15;;;;;;;10.98;3.72;;;;;;;;;;4987553;28;20367;-64
2022/08/30 05:13:41;;;;;;;9.80;3.97;;;;;;;;;;4987494;28;20348;-64
2022/08/30 05:16:07;;;;;;;8.40;3.40;;;;;;;;;;4987421;28;20532;-64
2022/08/30 05:18:34;;;;;;;10.43;3.78;;;;;;;;;;4988522;28;20448;-63
2022/08/30 05:21:11;;;;;;;13.75;4.00;;;;;;;;;;4987020;28;20463;-64
2022/08/30 05:23:37;;;;;;;12.93;3.90;;;;;;;;;;4988603;28;20025;-64
2022/08/30 05:26:09;;;;;;;11.07;3.83;;;;;;;;;;4987433;28;20462;-63
2022/08/30 05:28:34;;;;;;;14.73;4.53;;;;;;;;;;4987654;28;20490;-63
2022/08/30 05:31:00;;;;;;;11.93;3.97;;;;;;;;;;4987435;28;20383;-63
2022/08/30 05:33:26;;;;;;;11.35;4.75;;;;;;;;;;4987338;28;20460;-63
2022/08/30 05:35:52;;;;;;;12.65;4.90;;;;;;;;;;4987282;28;20353;-63
2022/08/30 05:38:17;;;;;;;16.50;4.22;;;;;;;;;;4987530;28;20095;-63
2022/08/30 05:40:42;;;;;;;14.32;5.32;;;;;;;;;;4969125;28;20448;-63
2022/08/30 05:43:09;;;;;;;12.00;4.63;;;;;;;;;;4987163;28;20321;-64
2022/08/30 05:45:35;;;;;;;11.70;4.40;;;;;;;;;;4987243;28;20502;-63
2022/08/30 05:48:01;;;;;;;11.40;4.35;;;;;;;;;;4988899;28;20455;-63
2022/08/30 05:50:26;;;;;;;14.75;6.45;;;;;;;;;;4991078;28;20481;-63
2022/08/30 05:52:52;;;;;;;18.92;5.55;;;;;;;;;;4991919;28;20079;-64
2022/08/30 05:55:17;;;;;;;10.90;5.72;;;;;;;;;;4989880;28;20336;-63
2022/08/30 05:57:43;;;;;;;13.27;4.88;;;;;;;;;;4991112;28;20530;-64
2022/08/30 06:00:14;;;;;;;11.65;4.70;;;;;;;;;;4990918;28;20485;-64
2022/08/30 06:02:40;;;;;;;17.02;4.75;;;;;;;;;;4991282;28;20343;-64
2022/08/30 06:05:06;;;;;;;14.75;5.57;;;;;;;;;;4991000;28;20440;-63
2022/08/30 06:07:31;;;;;;;11.88;5.60;;;;;;;;;;4991420;28;20497;-63
2022/08/30 06:09:57;;;;;;;10.32;5.20;;;;;;;;;;4991641;28;20423;-63
2022/08/30 06:12:22;;;;;;;16.75;5.40;;;;;;;;;;4991433;28;20436;-63
2022/08/30 06:14:47;;;;;;;16.60;5.47;;;;;;;;;;4992877;28;20479;-63
2022/08/30 06:17:13;;;;;;;12.35;6.07;;;;;;;;;;4991437;28;20456;-64
2022/08/30 06:19:38;;;;;;;14.10;5.20;;;;;;;;;;4990911;28;20090;-64
2022/08/30 06:22:03;;;;;;;13.68;5.38;;;;;;;;;;4990721;28;20344;-64
2022/08/30 06:24:29;;;;;;;16.70;6.18;;;;;;;;;;4993058;28;20383;-63
2022/08/30 06:26:54;;;;;;;11.52;5.10;;;;;;;;;;4990723;28;20086;-63
2022/08/30 06:29:21;;;;;;;11.68;6.15;;;;;;;;;;4990651;28;20447;-63
2022/08/30 06:31:47;;;;;;;9.63;4.72;;;;;;;;;;4990533;28;20414;-63
2022/08/30 06:34:13;;;;;;;14.48;6.22;;;;;;;;;;4990343;28;20394;-63
2022/08/30 06:36:39;;;;;;;14.93;5.72;;;;;;;;;;4990573;28;20423;-64
2022/08/30 06:39:05;;;;;;;15.13;5.13;;;;;;;;;;4990466;28;20378;-63
2022/08/30 06:41:32;;;;;;;9.75;4.63;;;;;;;;;;4990635;28;20337;-64
2022/08/30 06:44:00;;;;;;;10.07;4.63;;;;;;;;;;4990615;28;20048;-63
2022/08/30 06:46:28;;;;;;;8.98;4.43;;;;;;;;;;4990406;28;20504;-63
2022/08/30 06:48:55;;;;;;;20.15;5.80;;;;;;;;;;4991290;28;20025;-63
2022/08/30 06:51:29;;;;;;;14.07;5.45;;;;;;;;;;4990323;28;20424;-64
2022/08/30 06:53:55;;;;;;;11.52;4.55;;;;;;;;;;4991752;28;20458;-63
2022/08/30 06:56:20;;;;;;;14.75;5.32;;;;;;;;;;4990080;28;20107;-64
2022/08/30 06:58:46;;;;;;;12.75;5.03;;;;;;;;;;4990789;28;20367;-64
2022/08/30 07:01:14;;;;;;;8.45;4.45;;;;;;;;;;4990033;28;20314;-64
2022/08/30 07:03:39;;;;;;;13.02;4.65;;;;;;;;;;4972709;28;20348;-63
2022/08/30 07:06:06;;;;;;;9.13;4.40;;;;;;;;;;4990474;28;20047;-64
2022/08/30 07:08:31;;;;;;;10.93;4.70;;;;;;;;;;4991114;28;20640;-63
2022/08/30 07:10:57;;;;;;;11.93;4.90;;;;;;;;;;4989968;28;20479;-63
2022/08/30 07:13:22;;;;;;;11.90;4.13;;;;;;;;;;4989829;28;20021;-63
2022/08/30 07:15:48;;;;;;;10.30;4.40;;;;;;;;;;4990026;28;20324;-64
2022/08/30 07:21:05;;;;;;;8.57;3.95;;;;;;;;;;4990759;28;20359;-63
2022/08/30 07:23:30;;;;;;;11.48;4.38;;;;;;;;;;4989545;28;20377;-63
2022/08/30 07:25:55;;;;;;;8.70;4.28;;;;;;;;;;4989396;28;20414;-64
2022/08/30 07:28:21;;;;;;;9.43;3.53;;;;;;;;;;4989382;28;20115;-63
2022/08/30 07:30:46;;;;;;;7.35;3.92;;;;;;;;;;4989447;28;20347;-64
2022/08/30 07:33:12;;;;;;;10.13;4.63;;;;;;;;;;4991565;28;20441;-63
2022/08/30 07:35:37;;;;;;;12.45;4.20;;;;;;;;;;4989097;28;20460;-64
2022/08/30 07:38:03;;;;;;;11.43;4.50;;;;;;;;;;4989189;28;20475;-63
2022/08/30 07:40:28;;;;;;;15.77;4.28;;;;;;;;;;4989133;28;20498;-64
2022/08/30 07:42:54;;;;;;;8.93;3.88;;;;;;;;;;4971635;28;20107;-63
2022/08/30 07:45:19;;;;;;;11.88;3.85;;;;;;;;;;4990614;28;20335;-64
2022/08/30 07:47:45;;;;;;;8.30;3.97;;;;;;;;;;4989147;28;20183;-63
2022/08/30 07:50:11;;;;;;;6.80;3.47;;;;;;;;;;4990237;28;20340;-63
2022/08/30 07:52:37;;;;;;;11.70;3.92;;;;;;;;;;4989061;28;20434;-63
2022/08/30 07:55:02;;;;;;;5.82;3.45;;;;;;;;;;4989027;28;20383;-63
2022/08/30 07:57:32;;;;;;;7.97;3.22;;;;;;;;;;4988918;28;20379;-63
2022/08/30 07:59:57;;;;;;;6.75;3.15;;;;;;;;;;4989747;28;20029;-63
2022/08/30 08:02:23;;;;;;;7.57;3.55;;;;;;;;;;4988712;28;20448;-64
2022/08/30 08:04:49;;;;;;;6.38;3.40;;;;;;;;;;4989667;28;20527;-63
2022/08/30 08:07:15;;;;;;;4.63;2.50;;;;;;;;;;4988221;28;20036;-64
2022/08/30 08:09:40;;;;;;;10.20;3.08;;;;;;;;;;4988098;28;20032;-63
2022/08/30 08:12:06;;;;;;;6.25;3.00;;;;;;;;;;4986767;28;20098;-64
2022/08/30 08:14:32;;;;;;;6.43;3.15;;;;;;;;;;4987789;28;20519;-63
2022/08/30 08:16:57;;;;;;;7.65;2.90;;;;;;;;;;4989267;28;20452;-64
2022/08/30 08:19:23;;;;;;;7.40;2.85;;;;;;;;;;4988552;28;20370;-63
2022/08/30 08:21:48;;;;;;;8.10;2.03;;;;;;;;;;4988369;28;20136;-64
2022/08/30 08:24:15;;;;;;;3.95;2.25;;;;;;;;;;4988708;28;20458;-63
2022/08/30 08:26:40;;;;;;;5.45;2.10;;;;;;;;;;4990032;28;20384;-63
2022/08/30 08:29:07;;;;;;;7.13;2.20;;;;;;;;;;4988836;28;20528;-63
2022/08/30 08:31:33;;;;;;;4.60;2.47;;;;;;;;;;4988224;28;20432;-63
2022/08/30 08:34:03;;;;;;;4.43;2.17;;;;;;;;;;4988173;28;20436;-63
2022/08/30 08:36:30;;;;;;;9.82;2.50;;;;;;;;;;4988253;28;20530;-63
2022/08/30 08:38:55;;;;;;;5.03;2.53;;;;;;;;;;4988336;28;20506;-63
2022/08/30 08:41:38;;;;;;;4.53;2.30;;;;;;;;;;4988233;28;20428;-63
2022/08/30 08:44:13;;;;;;;4.53;2.30;;;;;;;;;;4988109;28;20371;-63
2022/08/30 08:47:30;;;;;;;3.60;2.00;;;;;;;;;;4986747;28;20517;-63
2022/08/30 08:49:58;;;;;;;6.95;2.30;;;;;;;;;;4883777;28;20103;-64
2022/08/30 08:55:31;;;;;;;4.45;2.67;;;;;;;;;;4969375;28;20527;-63
2022/08/30 08:57:57;;;;;;;2.75;2.00;;;;;;;;;;4968205;28;20528;-64
2022/08/30 09:00:22;;;;;;;7.85;2.10;;;;;;;;;;4968137;28;20480;-63
2022/08/30 09:02:56;;;;;;;4.00;2.20;;;;;;;;;;4968185;28;20329;-63
2022/08/30 09:05:25;;;;;;;3.80;2.45;;;;;;;;;;4968204;28;20575;-64
2022/08/30 09:08:17;;;;;;;3.53;2.20;;;;;;;;;;4950719;28;20344;-64
2022/08/30 09:10:49;;;;;;;5.22;2.50;;;;;;;;;;4960088;28;20034;-64
2022/08/30 09:13:15;;;;;;;4.28;1.65;;;;;;;;;;4951463;28;20440;-64
2022/08/30 09:15:40;;;;;;;5.75;2.40;;;;;;;;;;4968089;28;20524;-64
2022/08/30 09:18:07;;;;;;;3.60;1.90;;;;;;;;;;4969511;28;20429;-64
2022/08/30 09:20:45;;;;;;;4.97;2.22;;;;;;;;;;4969322;28;20421;-63
2022/08/30 09:23:26;;;;;;;3.20;1.90;;;;;;;;;;4970697;28;20102;-63
2022/08/30 09:26:01;;;;;;;4.88;1.80;;;;;;;;;;4972268;28;20436;-63
2022/08/30 09:28:47;;;;;;;3.63;2.05;;;;;;;;;;4971352;28;20511;-63
2022/08/30 09:31:20;;;;;;;6.28;2.20;;;;;;;;;;4953545;28;20817;-64
2022/08/30 09:34:06;;;;;;;2.63;1.52;;;;;;;;;;4970604;28;20152;-64
2022/08/30 09:36:52;;;;;;;2.40;1.70;;;;;;;;;;4953683;28;20384;-64
2022/08/30 09:39:18;;;;;;;5.93;2.05;;;;;;;;;;4953299;28;20368;-64
2022/08/30 09:41:47;;;;;;;4.82;1.80;;;;;;;;;;4971437;28;20052;-64
2022/08/30 09:44:19;;;;;;;2.70;1.85;;;;;;;;;;4971968;28;20123;-63
2022/08/30 09:46:56;;;;;;;1.80;1.60;;;;;;;;;;4971464;28;20509;-63
2022/08/30 09:49:39;;;;;;;3.83;1.88;;;;;;;;;;4953913;28;20437;-63
2022/08/30 09:52:32;;;;;;;1.92;1.50;;;;;;;;;;4971870;28;20352;-63
2022/08/30 09:55:36;;;;;;;4.20;1.40;;;;;;;;;;4969916;28;20483;-63
2022/08/30 09:58:22;;;;;;;7.97;1.70;;;;;;;;;;4970484;28;20543;-64
2022/08/30 10:01:11;;;;;;;4.55;1.73;;;;;;;;;;4972263;28;20515;-63
2022/08/30 10:03:59;;;;;;;7.53;1.90;;;;;;;;;;4971296;28;20423;-63
2022/08/30 10:06:32;;;;;;;4.10;1.60;;;;;;;;;;4970033;28;20052;-66
2022/08/30 10:09:19;;;;;;;2.88;1.50;;;;;;;;;;4971283;28;20456;-63
2022/08/30 10:11:50;;;;;;;2.85;1.55;;;;;;;;;;4972302;28;20220;-63
2022/08/30 10:14:57;;;;;;;3.28;1.60;;;;;;;;;;4971419;28;20579;-64
2022/08/30 10:17:47;;;;;;;2.70;1.40;;;;;;;;;;4950424;28;20467;-64
2022/08/30 10:20:21;;;;;;;2.25;1.55;;;;;;;;;;4971263;28;20454;-63
2022/08/30 10:23:07;;;;;;;2.95;2.00;;;;;;;;;;4971070;28;20053;-63
2022/08/30 10:25:53;;;;;;;2.25;1.42;;;;;;;;;;4970961;28;20329;-63
2022/08/30 10:28:28;;;;;;;2.70;1.50;;;;;;;;;;4953107;28;20057;-64
2022/08/30 10:31:04;;;;;;;2.05;1.30;;;;;;;;;;4971184;28;20520;-63
2022/08/30 10:33:35;;;;;;;4.40;2.10;;;;;;;;;;4969101;28;20021;-64
2022/08/30 10:36:04;;;;;;;4.40;1.70;;;;;;;;;;4952076;28;20483;-64
2022/08/30 10:38:35;;;;;;;3.17;1.42;;;;;;;;;;4971671;28;20515;-63
2022/08/30 10:41:31;;;;;;;1.92;1.58;;;;;;;;;;4969271;28;20425;-63
2022/08/30 10:43:58;;;;;;;3.60;1.85;;;;;;;;;;4965413;28;20546;-67
2022/08/30 10:46:26;;;;;;;4.38;1.88;;;;;;;;;;4972067;28;20376;-64
2022/08/30 10:48:53;;;;;;;3.67;1.50;;;;;;;;;;4970633;28;20506;-64
2022/08/30 10:51:27;;;;;;;2.08;1.40;;;;;;;;;;4971279;28;20511;-63
2022/08/30 10:54:07;;;;;;;2.55;1.35;;;;;;;;;;4953248;28;20491;-64
2022/08/30 10:56:34;;;;;;;3.60;1.52;;;;;;;;;;4952536;28;20471;-64
2022/08/30 10:58:59;;;;;;;1.98;1.35;;;;;;;;;;4968685;28;20364;-64
2022/08/30 11:02:02;;;;;;;1.65;1.30;;;;;;;;;;4952572;28;20341;-64
2022/08/30 11:04:30;;;;;;;2.00;1.20;;;;;;;;;;4970926;28;20440;-61
2022/08/30 11:07:16;;;;;;;2.67;1.52;;;;;;;;;;4970541;28;20448;-61
2022/08/30 11:10:01;;;;;;;4.28;1.42;;;;;;;;;;4970373;28;20520;-62
2022/08/30 11:12:32;;;;;;;1.65;1.05;;;;;;;;;;4972178;28;20503;-62
2022/08/30 11:14:58;;;;;;;2.58;1.30;;;;;;;;;;4970386;28;20463;-61
2022/08/30 11:17:25;;;;;;;2.13;1.10;;;;;;;;;;4970303;28;20379;-62
2022/08/30 11:19:52;;;;;;;2.25;1.30;;;;;;;;;;4970039;28;20448;-62
2022/08/30 11:22:25;;;;;;;1.27;0.90;;;;;;;;;;4970010;28;20508;-62
2022/08/30 11:25:04;;;;;;;1.23;1.02;;;;;;;;;;4970905;28;20415;-61
2022/08/30 11:27:39;;;;;;;;;;;;;;;;;;4971718;28;20437;-62
2022/08/30 11:30:23;;;;;;;1.75;1.10;;;;;;;;;;4970220;28;20365;-62
2022/08/30 11:33:11;;;;;;;1.67;0.85;;;;;;;;;;4970058;28;20390;-62
2022/08/30 11:35:48;;;;;;;1.67;0.80;;;;;;;;;;4969507;28;20384;-62
2022/08/30 11:38:27;;;;;;;1.67;1.02;;;;;;;;;;4970164;28;20029;-62
2022/08/30 11:40:56;;;;;;;1.02;0.80;;;;;;;;;;4970365;28;20425;-62
2022/08/30 11:43:34;;;;;;;2.55;1.00;;;;;;;;;;4969617;28;20448;-62
2022/08/30 11:46:27;;;;;;;1.67;0.98;;;;;;;;;;4969294;28;20448;-61
2022/08/30 11:49:04;;;;;;;2.55;1.00;;;;;;;;;;4969347;28;20555;-64
2022/08/30 11:51:52;;;;;;;1.70;0.88;;;;;;;;;;4969472;28;20033;-62
2022/08/30 11:54:36;;;;;;;1.33;0.90;;;;;;;;;;4959258;28;20381;-61
2022/08/30 11:57:10;;;;;;;1.10;1.00;;;;;;;;;;4989186;28;20458;-62
2022/08/30 11:59:38;;;;;;;1.58;1.13;;;;;;;;;;4988996;28;20535;-61
2022/08/30 12:02:05;;;;;;;;;;;;;;;;;;4987854;28;20474;-62
2022/08/30 12:04:43;;;;;;;1.48;0.90;;;;;;;;;;4971004;28;20270;-62
2022/08/30 12:07:10;;;;;;;1.13;0.80;;;;;;;;;;4970782;28;20033;-62
2022/08/30 12:09:36;;;;;;;1.33;0.80;;;;;;;;;;4988805;28;20352;-62
2022/08/30 12:12:08;;;;;;;1.08;0.90;;;;;;;;;;4988746;28;20418;-61
2022/08/30 12:14:53;;;;;;;1.80;1.10;;;;;;;;;;4989161;28;20440;-61
2022/08/30 12:20:20;;;;;;;0.73;0.70;;;;;;;;;;4988634;28;20510;-62
2022/08/30 12:22:45;;;;;;;1.33;0.90;;;;;;;;;;4971107;28;20184;-61
2022/08/30 12:25:32;;;;;;;2.17;0.73;;;;;;;;;;4970260;28;20584;-62
2022/08/30 12:28:28;;;;;;;0.75;0.75;;;;;;;;;;4988812;28;20390;-62
2022/08/30 12:30:53;;;;;;;1.15;0.70;;;;;;;;;;4987357;28;20083;-62
2022/08/30 12:33:31;;;;;;;1.67;0.82;;;;;;;;;;4988093;28;20503;-62
2022/08/30 12:35:58;;;;;;;1.85;0.93;;;;;;;;;;4988679;28;20440;-61
2022/08/30 12:38:23;;;;;;;1.75;0.82;;;;;;;;;;4988125;28;20467;-62
2022/08/30 12:40:51;;;;;;;1.42;0.70;;;;;;;;;;4987088;28;20043;-62
2022/08/30 12:43:37;;;;;;;0.80;0.60;;;;;;;;;;4988022;28;20467;-62
2022/08/30 12:46:11;;;;;;;0.63;0.60;;;;;;;;;;4988290;28;20529;-61
2022/08/30 12:48:38;;;;;;;1.10;0.65;;;;;;;;;;4988877;28;20427;-62
2022/08/30 12:51:05;;;;;;;1.42;0.90;;;;;;;;;;4970055;28;20436;-64
2022/08/30 12:53:35;;;;;;;2.33;0.80;;;;;;;;;;4987490;28;20092;-64
2022/08/30 12:56:09;;;;;;;2.03;1.00;;;;;;;;;;4970233;28;20442;-63
2022/08/30 12:58:40;;;;;;;1.00;0.90;;;;;;;;;;4970292;28;20381;-62
2022/08/30 13:01:27;;;;;;;2.67;0.98;;;;;;;;;;4988004;28;20321;-63
2022/08/30 13:04:21;;;;;;;1.20;0.90;;;;;;;;;;4987618;28;20399;-64
2022/08/30 13:06:57;;;;;;;1.08;0.80;;;;;;;;;;4988326;28;20037;-61
2022/08/30 13:09:28;;;;;;;1.15;0.80;;;;;;;;;;4990275;28;20483;-62
2022/08/30 13:11:54;;;;;;;1.50;0.82;;;;;;;;;;4989053;28;20433;-62
2022/08/30 13:14:40;;;;;;;1.42;1.00;;;;;;;;;;4988280;28;20478;-61
2022/08/30 13:17:06;;;;;;;2.58;1.10;;;;;;;;;;4988933;28;20371;-61
2022/08/30 13:19:36;;;;;;;0.65;0.57;;;;;;;;;;4990169;28;20492;-61
2022/08/30 13:22:02;;;;;;;2.47;1.10;;;;;;;;;;4987806;28;20534;-62
2022/08/30 13:24:28;;;;;;;1.67;1.30;;;;;;;;;;4988939;28;20470;-62
2022/08/30 13:26:55;;;;;;;1.10;0.80;;;;;;;;;;4987998;28;20120;-62
2022/08/30 13:29:24;;;;;;;1.30;0.77;;;;;;;;;;4989790;28;20451;-61
2022/08/30 13:31:50;;;;;;;0.98;0.70;;;;;;;;;;4987974;28;20444;-62
2022/08/30 13:34:17;;;;;;;1.20;0.85;;;;;;;;;;4987850;28;20454;-61
2022/08/30 13:36:46;;;;;;;0.90;0.70;;;;;;;;;;4987769;28;20418;-61
2022/08/30 13:39:12;;;;;;;;;;;;;;;;;;4972631;28;20383;-62
2022/08/30 13:41:38;;;;;;;1.13;0.80;;;;;;;;;;4987788;28;20246;-61
2022/08/30 13:44:03;;;;;;;1.08;0.60;;;;;;;;;;4987775;28;20380;-61
2022/08/30 13:46:29;;;;;;;1.63;0.95;;;;;;;;;;4987815;28;20443;-61
2022/08/30 13:49:06;;;;;;;1.30;0.75;;;;;;;;;;4970426;28;20439;-61
2022/08/30 13:51:31;;;;;;;1.30;0.85;;;;;;;;;;4990063;28;20489;-62
2022/08/30 13:53:57;;;;;;;4.18;0.90;;;;;;;;;;4989260;28;20402;-61
2022/08/30 13:56:30;;;;;;;1.60;0.73;;;;;;;;;;4987983;28;20383;-61
2022/08/30 13:59:00;;;;;;;0.95;0.77;;;;;;;;;;4988570;28;20355;-61
2022/08/30 14:01:25;;;;;;;1.25;0.88;;;;;;;;;;4987705;28;20452;-62
2022/08/30 14:03:51;;;;;;;1.30;0.88;;;;;;;;;;4987522;28;20418;-61
2022/08/30 14:06:16;;;;;;;1.00;0.70;;;;;;;;;;4987334;28;20515;-61
2022/08/30 14:08:42;;;;;;;1.33;0.82;;;;;;;;;;4989059;28;20448;-63
2022/08/30 14:11:10;;;;;;;1.35;0.70;;;;;;;;;;4991172;28;20428;-62
2022/08/30 14:13:35;;;;;;;1.10;0.70;;;;;;;;;;4990957;28;20550;-62
2022/08/30 14:16:03;;;;;;;1.10;0.80;;;;;;;;;;4991040;28;20176;-61
2022/08/30 14:18:29;;;;;;;1.52;0.75;;;;;;;;;;4990734;28;20463;-64
2022/08/30 14:20:55;;;;;;;1.17;0.82;;;;;;;;;;4991123;28;20463;-63
2022/08/30 14:23:20;;;;;;;2.83;1.13;;;;;;;;;;4973016;28;20448;-64
2022/08/30 14:25:46;;;;;;;1.60;1.05;;;;;;;;;;4992472;28;20344;-63
2022/08/30 14:28:11;;;;;;;1.60;1.08;;;;;;;;;;4973602;28;20321;-64
2022/08/30 14:30:37;;;;;;;0.95;0.65;;;;;;;;;;4992866;28;20450;-64
2022/08/30 14:33:03;;;;;;;0.98;0.80;;;;;;;;;;4991894;28;20492;-64
2022/08/30 14:35:29;;;;;;;1.63;1.00;;;;;;;;;;4991760;28;20432;-64
2022/08/30 14:37:54;;;;;;;1.05;0.80;;;;;;;;;;4990641;28;20052;-63
2022/08/30 14:40:19;;;;;;;1.20;0.95;;;;;;;;;;4990840;28;20541;-63
2022/08/30 14:42:45;;;;;;;2.08;1.13;;;;;;;;;;4990453;28;20447;-63
2022/08/30 14:45:11;;;;;;;1.80;1.00;;;;;;;;;;4990399;28;20098;-63
2022/08/30 14:47:36;;;;;;;1.55;0.90;;;;;;;;;;4992461;28;20466;-63
2022/08/30 14:50:03;;;;;;;2.58;1.50;;;;;;;;;;4990452;28;20060;-63
2022/08/30 14:52:29;;;;;;;1.60;0.90;;;;;;;;;;4990109;28;20502;-63
2022/08/30 14:54:54;;;;;;;1.60;0.98;;;;;;;;;;4989478;28;20488;-63
2022/08/30 14:57:20;;;;;;;3.03;1.10;;;;;;;;;;4991435;28;20324;-63
2022/08/30 14:59:45;;;;;;;1.40;1.10;;;;;;;;;;4990290;28;20455;-63
2022/08/30 15:02:11;;;;;;;1.40;1.00;;;;;;;;;;4989974;28;20339;-63